Time;durP1;ratioP1;P1;durP2;ratioP2;P2;SDS_P1;SDS_P2;PMS_P1;PMS_P2;Temp;Humidity;BMP_temperature;BMP_pressure;BME280_temperature;BME280_humidity;BME280_pressure;Samples;Min_cycle;Max_cycle;Signal;HPM_P1;HPM_P2
2022/09/28 00:00:53;;;;;;;1999.90;999.90;;;8.80;99.90;;;;;;5015424;28;20940;-67
2022/09/28 00:03:19;;;;;;;1999.90;999.90;;;8.80;99.90;;;;;;5015198;28;20424;-67
2022/09/28 00:05:44;;;;;;;1999.90;999.90;;;8.80;99.90;;;;;;5015255;28;20177;-67
2022/09/28 00:08:10;;;;;;;1999.90;999.90;;;8.80;99.90;;;;;;5014795;28;20693;-67
2022/09/28 00:10:36;;;;;;;1999.90;999.90;;;8.80;99.90;;;;;;5014910;28;20215;-67
2022/09/28 00:13:02;;;;;;;1999.90;999.90;;;8.80;99.90;;;;;;5014908;28;20595;-67
2022/09/28 00:15:28;;;;;;;1999.90;999.90;;;8.80;99.90;;;;;;5014868;28;20493;-67
2022/09/28 00:17:53;;;;;;;1999.90;999.90;;;8.80;99.90;;;;;;5014585;28;20172;-67
2022/09/28 00:20:19;;;;;;;1999.90;999.90;;;8.80;99.90;;;;;;5014749;28;20405;-68
2022/09/28 00:22:45;;;;;;;1999.90;999.90;;;8.80;99.90;;;;;;5014868;28;20199;-66
2022/09/28 00:25:10;;;;;;;1999.90;999.90;;;8.80;99.90;;;;;;5014734;28;20192;-67
2022/09/28 00:27:36;;;;;;;1999.90;999.90;;;8.80;99.90;;;;;;5014484;28;20209;-67
2022/09/28 00:30:01;;;;;;;1999.90;999.90;;;8.80;99.90;;;;;;5014541;28;20202;-66
2022/09/28 00:32:27;;;;;;;1999.90;999.90;;;8.80;99.90;;;;;;5014496;28;20700;-67
2022/09/28 00:34:53;;;;;;;1999.90;999.90;;;8.80;99.90;;;;;;5014541;28;20166;-67
2022/09/28 00:37:19;;;;;;;1999.90;999.90;;;8.90;99.90;;;;;;5014223;28;20169;-66
2022/09/28 00:39:46;;;;;;;1999.90;999.90;;;8.90;99.90;;;;;;5014463;28;20404;-66
2022/09/28 00:42:16;;;;;;;1999.90;999.90;;;8.90;99.90;;;;;;5014140;28;20423;-67
2022/09/28 00:44:45;;;;;;;1999.90;999.90;;;9.00;99.90;;;;;;5014388;28;20454;-66
2022/09/28 00:47:20;;;;;;;1999.90;999.90;;;8.90;99.90;;;;;;5013998;28;20816;-68
2022/09/28 00:50:04;;;;;;;1999.90;999.90;;;8.90;99.90;;;;;;5014384;28;20838;-66
2022/09/28 00:52:58;;;;;;;1999.90;999.90;;;8.90;99.90;;;;;;5014113;28;20429;-68
2022/09/28 00:55:50;;;;;;;1999.90;999.90;;;8.90;99.90;;;;;;4977002;28;20426;-68
2022/09/28 00:58:28;;;;;;;1999.90;999.90;;;8.90;99.90;;;;;;5013560;28;20401;-68
2022/09/28 01:00:57;;;;;;;1999.90;999.90;;;8.90;99.90;;;;;;5013992;28;20904;-68
2022/09/28 01:03:24;;;;;;;1999.90;999.90;;;8.80;99.90;;;;;;5013897;28;20786;-69
2022/09/28 01:05:51;;;;;;;1999.90;999.90;;;8.80;99.90;;;;;;5013765;28;20406;-68
2022/09/28 01:08:20;;;;;;;1999.90;999.90;;;8.80;99.90;;;;;;5013719;28;20514;-68
2022/09/28 01:10:47;;;;;;;1999.90;999.90;;;8.90;99.90;;;;;;5013835;28;20474;-68
2022/09/28 01:13:15;;;;;;;1999.90;999.90;;;8.90;99.90;;;;;;5013744;28;20997;-68
2022/09/28 01:16:06;;;;;;;1999.90;999.90;;;8.90;99.90;;;;;;5013691;28;20418;-68
2022/09/28 01:18:36;;;;;;;1999.90;999.90;;;8.90;99.90;;;;;;5004343;28;20966;-68
2022/09/28 01:21:04;;;;;;;1999.90;999.90;;;8.90;99.90;;;;;;5013662;28;20497;-68
2022/09/28 01:23:36;;;;;;;1999.90;999.90;;;8.90;99.90;;;;;;5013534;28;20418;-68
2022/09/28 01:26:45;;;;;;;1999.90;999.90;;;8.90;99.90;;;;;;5013563;28;20405;-67
2022/09/28 01:29:29;;;;;;;1999.90;999.90;;;9.00;99.90;;;;;;4917918;29;20448;-67
2022/09/28 01:32:12;;;;;;;1999.90;999.90;;;9.00;99.90;;;;;;4933909;29;20903;-68
2022/09/28 01:34:45;;;;;;;1999.90;999.90;;;9.00;99.90;;;;;;4993564;28;20409;-68
2022/09/28 01:37:15;;;;;;;1999.90;999.90;;;9.00;99.90;;;;;;5013292;28;20919;-68
2022/09/28 01:39:45;;;;;;;1999.90;999.90;;;9.10;99.90;;;;;;5013565;28;20400;-68
2022/09/28 01:42:18;;;;;;;1999.90;999.90;;;9.10;99.90;;;;;;5013317;28;20429;-68
2022/09/28 01:44:48;;;;;;;1999.90;999.90;;;9.10;99.90;;;;;;5013618;28;20424;-67
2022/09/28 01:47:19;;;;;;;1999.90;999.90;;;9.10;99.90;;;;;;5012907;28;20418;-67
2022/09/28 01:49:58;;;;;;;1999.90;999.90;;;9.10;99.90;;;;;;5012976;28;20454;-67
2022/09/28 01:52:32;;;;;;;1999.90;999.90;;;9.10;99.90;;;;;;5013044;28;20425;-67
2022/09/28 01:55:08;;;;;;;1999.90;999.90;;;9.00;99.90;;;;;;5013189;28;20516;-67
2022/09/28 01:58:03;;;;;;;1999.90;999.90;;;9.10;99.90;;;;;;5012773;28;20977;-67
2022/09/28 02:00:29;;;;;;;1999.90;999.90;;;9.00;99.90;;;;;;5008888;28;20419;-67
2022/09/28 02:03:24;;;;;;;1999.90;999.90;;;9.10;99.90;;;;;;5012847;28;20432;-67
2022/09/28 02:05:56;;;;;;;1999.90;999.90;;;9.10;99.90;;;;;;5002196;28;20206;-67
2022/09/28 02:08:35;;;;;;;1999.90;999.90;;;9.00;99.90;;;;;;5012572;28;20460;-68
2022/09/28 02:11:11;;;;;;;1999.90;999.90;;;9.00;99.90;;;;;;5012957;28;20403;-67
2022/09/28 02:13:49;;;;;;;1999.90;999.90;;;8.90;99.90;;;;;;5012714;28;20789;-67
2022/09/28 02:16:30;;;;;;;1999.90;999.90;;;8.90;99.90;;;;;;5012604;28;20391;-67
2022/09/28 02:18:55;;;;;;;1999.90;999.90;;;8.90;99.90;;;;;;5012401;28;20469;-66
2022/09/28 02:21:34;;;;;;;1999.90;999.90;;;8.90;99.90;;;;;;5012630;28;20444;-66
2022/09/28 02:24:06;;;;;;;1999.90;999.90;;;8.90;99.90;;;;;;5012550;28;20555;-66
2022/09/28 02:26:37;;;;;;;1999.90;999.90;;;8.90;99.90;;;;;;5012447;28;20770;-67
2022/09/28 02:29:03;;;;;;;1999.90;999.90;;;8.90;99.90;;;;;;5012411;28;20445;-66
2022/09/28 02:31:30;;;;;;;1999.90;999.90;;;8.90;99.90;;;;;;5012354;28;20464;-67
2022/09/28 02:33:57;;;;;;;1999.90;999.90;;;9.00;99.90;;;;;;5012399;28;20426;-66
2022/09/28 02:36:26;;;;;;;1999.90;999.90;;;9.00;99.90;;;;;;5012665;28;20406;-67
2022/09/28 02:38:52;;;;;;;1999.90;999.90;;;9.10;99.90;;;;;;5012482;28;20437;-67
2022/09/28 02:41:36;;;;;;;1999.90;999.90;;;9.10;99.90;;;;;;5013016;28;20426;-67
2022/09/28 02:44:29;;;;;;;1999.90;999.90;;;9.10;99.90;;;;;;5012576;28;20962;-67
2022/09/28 02:46:55;;;;;;;1999.90;999.90;;;9.20;99.90;;;;;;5012250;28;20907;-67
2022/09/28 02:49:33;;;;;;;1999.90;999.90;;;9.20;99.90;;;;;;5012535;28;20448;-67
2022/09/28 02:52:17;;;;;;;1999.90;999.90;;;9.20;99.90;;;;;;5012792;28;20170;-68
2022/09/28 02:54:53;;;;;;;1999.90;999.90;;;9.20;99.90;;;;;;5012591;28;20431;-67
2022/09/28 02:57:48;;;;;;;1999.90;999.90;;;9.20;99.90;;;;;;5012218;28;20453;-67
2022/09/28 03:00:18;;;;;;;1999.90;999.90;;;9.10;99.90;;;;;;5012500;28;20864;-68
2022/09/28 03:03:19;;;;;;;1999.90;999.90;;;9.10;99.90;;;;;;5012500;28;20471;-67
2022/09/28 03:06:04;;;;;;;1999.90;999.90;;;9.20;99.90;;;;;;5012781;28;20497;-68
2022/09/28 03:08:43;;;;;;;1999.90;999.90;;;9.20;99.90;;;;;;5012626;28;20403;-67
2022/09/28 03:11:21;;;;;;;1999.90;999.90;;;9.20;99.90;;;;;;5012707;28;20930;-67
2022/09/28 03:13:48;;;;;;;1999.90;999.90;;;9.20;99.90;;;;;;5012437;28;20428;-67
2022/09/28 03:16:16;;;;;;;1999.90;999.90;;;9.20;99.90;;;;;;5012224;28;20567;-68
2022/09/28 03:18:42;;;;;;;1999.90;999.90;;;9.20;99.90;;;;;;5012005;28;20460;-68
2022/09/28 03:21:12;;;;;;;1999.90;999.90;;;9.20;99.90;;;;;;5015600;28;20932;-67
2022/09/28 03:23:38;;;;;;;1999.90;999.90;;;9.20;99.90;;;;;;5016299;28;20277;-68
2022/09/28 03:26:04;;;;;;;1999.90;999.90;;;9.10;99.90;;;;;;5016279;28;20405;-67
2022/09/28 03:28:29;;;;;;;1999.90;999.90;;;9.10;99.90;;;;;;5015783;28;20428;-68
2022/09/28 03:30:55;;;;;;;1999.90;999.90;;;9.20;99.90;;;;;;5015873;28;20176;-67
2022/09/28 03:33:21;;;;;;;1999.90;999.90;;;9.20;99.90;;;;;;5015827;28;20594;-68
2022/09/28 03:35:49;;;;;;;1999.90;999.90;;;9.20;99.90;;;;;;5015798;28;20182;-68
2022/09/28 03:38:15;;;;;;;1999.90;999.90;;;9.10;99.90;;;;;;5015451;28;20473;-68
2022/09/28 03:40:41;;;;;;;1999.90;999.90;;;9.10;99.90;;;;;;5015582;28;20408;-68
2022/09/28 03:43:07;;;;;;;1999.90;999.90;;;9.00;99.90;;;;;;5015327;28;20453;-68
2022/09/28 03:45:32;;;;;;;1999.90;999.90;;;9.10;99.90;;;;;;5015506;28;20174;-67
2022/09/28 03:47:59;;;;;;;1999.90;999.90;;;9.10;99.90;;;;;;5015213;28;20249;-69
2022/09/28 03:50:24;;;;;;;1999.90;999.90;;;9.00;99.90;;;;;;5015372;28;20861;-68
2022/09/28 03:52:50;;;;;;;1999.90;999.90;;;9.10;99.90;;;;;;5015280;28;20530;-67
2022/09/28 03:55:16;;;;;;;1999.90;999.90;;;9.10;99.90;;;;;;5015316;28;20171;-67
2022/09/28 03:57:41;;;;;;;1999.90;999.90;;;9.10;99.90;;;;;;5015075;28;20172;-69
2022/09/28 04:00:08;;;;;;;1999.90;999.90;;;9.10;99.90;;;;;;5015240;28;20419;-68
2022/09/28 04:02:34;;;;;;;1999.90;999.90;;;9.00;99.90;;;;;;5015218;28;20221;-69
2022/09/28 04:04:59;;;;;;;1999.90;999.90;;;9.00;99.90;;;;;;5015375;28;20406;-68
2022/09/28 04:07:25;;;;;;;1999.90;999.90;;;9.10;99.90;;;;;;5015111;28;20482;-68
2022/09/28 04:09:51;;;;;;;1999.90;999.90;;;9.10;99.90;;;;;;5015205;28;20218;-67
2022/09/28 04:12:17;;;;;;;1999.90;999.90;;;9.10;99.90;;;;;;5015294;28;20504;-68
2022/09/28 04:14:42;;;;;;;1999.90;999.90;;;9.10;99.90;;;;;;5015183;28;20169;-68
2022/09/28 04:17:08;;;;;;;1999.90;999.90;;;9.10;99.90;;;;;;5014857;28;20168;-68
2022/09/28 04:19:33;;;;;;;1999.90;999.90;;;9.10;99.90;;;;;;5015220;28;20245;-68
2022/09/28 04:22:00;;;;;;;1999.90;999.90;;;9.10;99.90;;;;;;5015007;28;20181;-68
2022/09/28 04:24:26;;;;;;;1999.90;999.90;;;9.10;99.90;;;;;;5015140;28;20220;-68
2022/09/28 04:29:14;;;;;;;1999.90;999.90;;;9.10;99.90;;;;;;5014844;28;20421;-66
2022/09/28 04:29:38;;;;;;;1999.90;999.90;;;9.00;99.90;;;;;;5014406;28;20475;-67
2022/09/28 04:32:04;;;;;;;1999.90;999.90;;;9.00;99.90;;;;;;5013412;28;20410;-66
2022/09/28 04:34:30;;;;;;;1999.90;999.90;;;9.00;99.90;;;;;;5014432;28;20784;-67
2022/09/28 04:36:56;;;;;;;1999.90;999.90;;;9.00;99.90;;;;;;5014258;28;20420;-67
2022/09/28 04:39:21;;;;;;;1999.90;999.90;;;9.00;99.90;;;;;;5014368;28;20171;-66
2022/09/28 04:41:48;;;;;;;1999.90;999.90;;;9.00;99.90;;;;;;5014441;28;20171;-66
2022/09/28 04:44:13;;;;;;;1999.90;999.90;;;9.00;99.90;;;;;;5014165;28;20580;-66
2022/09/28 04:46:39;;;;;;;1999.90;999.90;;;8.90;99.90;;;;;;5014316;28;20418;-66
2022/09/28 04:49:04;;;;;;;1999.90;999.90;;;9.00;99.90;;;;;;5014145;28;20605;-67
2022/09/28 04:51:31;;;;;;;1999.90;999.90;;;9.00;99.90;;;;;;5014216;28;20241;-68
2022/09/28 04:53:57;;;;;;;1999.90;999.90;;;9.00;99.90;;;;;;5014181;28;20191;-66
2022/09/28 04:56:23;;;;;;;1999.90;999.90;;;8.90;99.90;;;;;;5014126;28;20406;-67
2022/09/28 04:58:48;;;;;;;1999.90;999.90;;;9.00;99.90;;;;;;5013953;28;20770;-67
2022/09/28 05:01:16;;;;;;;1999.90;999.90;;;8.90;99.90;;;;;;5014507;28;20229;-67
2022/09/28 05:03:42;;;;;;;1999.90;999.90;;;8.90;99.90;;;;;;5013947;28;20208;-66
2022/09/28 05:06:08;;;;;;;1999.90;999.90;;;8.90;99.90;;;;;;5013768;28;20415;-66
2022/09/28 05:08:34;;;;;;;1999.90;999.90;;;8.80;99.90;;;;;;5013654;28;20412;-66
2022/09/28 05:11:02;;;;;;;1999.90;999.90;;;8.80;99.90;;;;;;5013877;28;20420;-66
2022/09/28 05:13:29;;;;;;;1999.90;999.90;;;8.80;99.90;;;;;;5013758;28;20425;-66
2022/09/28 05:15:57;;;;;;;1999.90;999.90;;;8.80;99.90;;;;;;5013583;28;20952;-67
2022/09/28 05:18:22;;;;;;;1999.90;999.90;;;8.80;99.90;;;;;;5013736;28;20813;-67
2022/09/28 05:20:48;;;;;;;1999.90;999.90;;;8.90;99.90;;;;;;5013667;28;20416;-68
2022/09/28 05:23:14;;;;;;;1999.90;999.90;;;8.90;99.90;;;;;;5013635;28;20197;-67
2022/09/28 05:25:40;;;;;;;1999.90;999.90;;;9.00;99.90;;;;;;5013520;28;20185;-67
2022/09/28 05:28:07;;;;;;;1999.90;999.90;;;9.00;99.90;;;;;;5013261;28;20427;-67
2022/09/28 05:30:33;;;;;;;1999.90;999.90;;;8.90;99.90;;;;;;5013432;28;20446;-67
2022/09/28 05:32:58;;;;;;;1999.90;999.90;;;8.90;99.90;;;;;;5013385;28;20431;-67
2022/09/28 05:35:24;;;;;;;1999.90;999.90;;;8.90;99.90;;;;;;5013327;28;20409;-67
2022/09/28 05:37:50;;;;;;;1999.90;999.90;;;8.90;99.90;;;;;;5012965;28;20204;-67
2022/09/28 05:40:16;;;;;;;1999.90;999.90;;;8.90;99.90;;;;;;5013714;28;20235;-67
2022/09/28 05:42:41;;;;;;;1999.90;999.90;;;8.90;99.90;;;;;;5013345;28;20304;-67
2022/09/28 05:45:09;;;;;;;1999.90;999.90;;;8.90;99.90;;;;;;5013274;28;20412;-66
2022/09/28 05:47:39;;;;;;;1999.90;999.90;;;8.90;99.90;;;;;;5013566;28;20217;-69
2022/09/28 05:50:06;;;;;;;1999.90;999.90;;;8.90;99.90;;;;;;5013231;28;20460;-69
2022/09/28 05:52:32;;;;;;;1999.90;999.90;;;8.90;99.90;;;;;;5013094;28;20446;-68
2022/09/28 05:54:57;;;;;;;1999.90;999.90;;;8.90;99.90;;;;;;5013093;28;20408;-67
2022/09/28 05:57:23;;;;;;;1999.90;999.90;;;8.90;99.90;;;;;;5012883;28;20176;-69
2022/09/28 05:59:48;;;;;;;1999.90;999.90;;;8.90;99.90;;;;;;5012983;28;20659;-68
2022/09/28 06:02:14;;;;;;;1999.90;999.90;;;8.80;99.90;;;;;;5012914;28;20194;-67
2022/09/28 06:04:39;;;;;;;1999.90;999.90;;;8.80;99.90;;;;;;5012950;28;20253;-68
2022/09/28 06:07:05;;;;;;;1999.90;999.90;;;8.80;99.90;;;;;;5012649;28;20166;-67
2022/09/28 06:09:31;;;;;;;1999.90;999.90;;;8.80;99.90;;;;;;5012749;28;20647;-66
2022/09/28 06:11:59;;;;;;;1999.90;999.90;;;8.80;99.90;;;;;;5012761;28;20171;-66
2022/09/28 06:14:25;;;;;;;1999.90;999.90;;;8.80;99.90;;;;;;5012764;28;20181;-67
2022/09/28 06:16:51;;;;;;;1999.90;999.90;;;8.80;99.90;;;;;;5012431;28;20404;-67
2022/09/28 06:19:16;;;;;;;1999.90;999.90;;;8.80;99.90;;;;;;5012568;28;20639;-66
2022/09/28 06:21:42;;;;;;;1999.90;999.90;;;8.90;99.90;;;;;;5012690;28;20417;-66
2022/09/28 06:24:08;;;;;;;1999.90;999.90;;;9.00;99.90;;;;;;5012538;28;20199;-66
2022/09/28 06:26:33;;;;;;;1999.90;999.90;;;9.00;99.90;;;;;;5012391;28;20228;-67
2022/09/28 06:29:02;;;;;;;1999.90;999.90;;;9.10;99.90;;;;;;5012323;28;20249;-66
2022/09/28 06:31:28;;;;;;;1999.90;999.90;;;9.10;99.90;;;;;;5012735;28;20202;-66
2022/09/28 06:33:54;;;;;;;1999.90;999.90;;;9.10;99.90;;;;;;5012474;28;20449;-66
2022/09/28 06:36:21;;;;;;;1999.90;999.90;;;9.20;99.90;;;;;;5012351;28;20410;-66
2022/09/28 06:38:46;;;;;;;1999.90;999.90;;;9.20;99.90;;;;;;5013154;28;20688;-67
2022/09/28 06:41:12;;;;;;;1999.90;999.90;;;9.30;99.90;;;;;;5013096;28;20411;-67
2022/09/28 06:43:40;;;;;;;1999.90;999.90;;;9.30;99.90;;;;;;5012785;28;20207;-68
2022/09/28 06:46:08;;;;;;;1999.90;999.90;;;9.40;99.90;;;;;;5012835;28;20899;-67
2022/09/28 06:48:34;;;;;;;1999.90;999.90;;;9.40;99.90;;;;;;5012580;28;20414;-67
2022/09/28 06:51:00;;;;;;;1999.90;999.90;;;9.50;99.90;;;;;;5013365;28;20408;-67
2022/09/28 06:53:27;;;;;;;1999.90;999.90;;;9.60;99.90;;;;;;5013366;28;20437;-67
2022/09/28 06:55:53;;;;;;;1999.90;999.90;;;9.70;99.90;;;;;;5012092;28;20403;-68
2022/09/28 06:58:20;;;;;;;1999.90;999.90;;;9.70;99.90;;;;;;5012356;28;20413;-68
2022/09/28 07:00:47;;;;;;;1999.90;999.90;;;9.70;99.90;;;;;;5012560;28;20808;-68
2022/09/28 07:03:16;;;;;;;1999.90;999.90;;;9.70;99.90;;;;;;5012435;28;20503;-69
2022/09/28 07:05:44;;;;;;;1999.90;999.90;;;9.70;99.90;;;;;;5012527;28;20442;-68
2022/09/28 07:08:10;;;;;;;1999.90;999.90;;;9.70;99.90;;;;;;5012080;28;20414;-69
2022/09/28 07:10:40;;;;;;;1999.90;999.90;;;9.70;99.90;;;;;;5012115;28;20445;-68
2022/09/28 07:13:06;;;;;;;1999.90;999.90;;;9.70;99.90;;;;;;5012388;28;20781;-68
2022/09/28 07:15:32;;;;;;;1999.90;999.90;;;9.70;99.90;;;;;;5012172;28;20486;-68
2022/09/28 07:17:59;;;;;;;1999.90;999.90;;;9.80;99.90;;;;;;5011984;28;20752;-68
2022/09/28 07:20:25;;;;;;;1999.90;999.90;;;9.90;99.90;;;;;;5012190;28;20176;-69
2022/09/28 07:22:58;;;;;;;1999.90;999.90;;;10.00;99.90;;;;;;5012144;28;20437;-68
2022/09/28 07:25:24;;;;;;;1999.90;999.90;;;10.10;99.90;;;;;;5012247;28;20206;-68
2022/09/28 07:27:54;;;;;;;1999.90;999.90;;;10.10;99.90;;;;;;5012097;28;20406;-68
2022/09/28 07:30:20;;;;;;;1999.90;999.90;;;10.10;99.90;;;;;;5012205;28;21154;-66
2022/09/28 07:32:47;;;;;;;1999.90;999.90;;;10.10;99.90;;;;;;5011826;28;20461;-66
2022/09/28 07:35:13;;;;;;;1999.90;999.90;;;10.10;99.90;;;;;;5011876;28;20486;-66
2022/09/28 07:37:38;;;;;;;1999.90;999.90;;;10.20;99.90;;;;;;5011478;28;20481;-67
2022/09/28 07:42:49;;;;;;;1999.90;999.90;;;10.30;99.90;;;;;;5012965;28;20270;-67
2022/09/28 07:45:15;;;;;;;1999.90;999.90;;;10.20;99.90;;;;;;5012476;28;20428;-67
2022/09/28 07:47:41;;;;;;;1999.90;999.90;;;10.20;99.90;;;;;;5012126;28;20411;-67
2022/09/28 07:50:07;;;;;;;1999.90;999.90;;;10.30;99.90;;;;;;5011738;28;20461;-67
2022/09/28 07:52:34;;;;;;;1999.90;999.90;;;10.30;99.90;;;;;;5027471;28;20219;-68
2022/09/28 07:55:00;;;;;;;1999.90;999.90;;;10.30;99.90;;;;;;5031527;28;20460;-67
2022/09/28 07:57:27;;;;;;;1999.90;999.90;;;10.30;99.90;;;;;;5031046;28;20491;-66
2022/09/28 07:59:53;;;;;;;1999.90;999.90;;;10.40;99.90;;;;;;5031346;28;20785;-68
2022/09/28 08:02:19;;;;;;;1999.90;999.90;;;10.50;99.90;;;;;;5031218;28;20426;-67
2022/09/28 08:04:49;;;;;;;1999.90;999.90;;;10.60;99.90;;;;;;5030622;28;20461;-67
2022/09/28 08:07:17;;;;;;;1999.90;999.90;;;10.60;99.90;;;;;;5034198;28;20501;-69
2022/09/28 08:09:44;;;;;;;1999.90;999.90;;;10.50;99.90;;;;;;5034970;28;20504;-68
2022/09/28 08:12:11;;;;;;;1999.90;999.90;;;10.50;99.90;;;;;;5034458;28;20405;-67
2022/09/28 08:14:36;;;;;;;1999.90;999.90;;;10.50;99.90;;;;;;5034735;28;20490;-69
2022/09/28 08:17:03;;;;;;;1999.90;999.90;;;10.60;99.90;;;;;;5034552;28;20948;-69
2022/09/28 08:22:14;;;;;;;1999.90;999.90;;;10.60;99.90;;;;;;5034492;28;20925;-68
2022/09/28 08:24:40;;;;;;;1999.90;999.90;;;10.70;99.90;;;;;;5034806;28;20410;-68
2022/09/28 08:27:06;;;;;;;1999.90;999.90;;;10.70;99.90;;;;;;5034365;28;20406;-67
2022/09/28 08:29:31;;;;;;;1999.90;999.90;;;10.80;99.90;;;;;;5034495;28;20221;-67
2022/09/28 08:32:00;;;;;;;1999.90;999.90;;;10.90;99.90;;;;;;5034983;28;20409;-67
2022/09/28 08:34:26;;;;;;;1999.90;999.90;;;10.90;99.90;;;;;;5034618;28;20167;-67
2022/09/28 08:36:52;;;;;;;1999.90;999.90;;;10.90;99.90;;;;;;5034607;28;20505;-67
2022/09/28 08:39:17;;;;;;;1999.90;999.90;;;11.00;99.90;;;;;;5034959;28;20176;-67
2022/09/28 08:42:05;;;;;;;1999.90;999.90;;;11.00;99.90;;;;;;5034913;28;20434;-67
2022/09/28 08:44:42;;;;;;;1999.90;999.90;;;11.00;99.90;;;;;;5034493;28;20267;-65
2022/09/28 08:50:29;;;;;;;1999.90;999.90;;;11.20;99.90;;;;;;5012708;28;20452;-64
2022/09/28 08:53:01;;;;;;;1999.90;999.90;;;11.20;99.90;;;;;;5010728;28;20613;-67
2022/09/28 08:55:35;;;;;;;1999.90;999.90;;;11.30;99.90;;;;;;5013100;28;20498;-65
2022/09/28 08:58:15;;;;;;;1999.90;999.90;;;11.40;99.90;;;;;;5012817;28;20409;-66
2022/09/28 09:00:51;;;;;;;1999.90;999.90;;;11.60;99.90;;;;;;5013535;28;20399;-65
2022/09/28 09:03:21;;;;;;;1999.90;999.90;;;11.60;99.90;;;;;;5012893;28;20429;-68
2022/09/28 09:05:46;;;;;;;1999.90;999.90;;;11.70;99.90;;;;;;5013392;28;20564;-69
2022/09/28 09:08:27;;;;;;;1999.90;999.90;;;11.80;99.90;;;;;;5012651;28;20499;-68
2022/09/28 09:11:09;;;;;;;1999.90;999.90;;;11.70;99.90;;;;;;5012523;28;20680;-68
2022/09/28 09:13:54;;;;;;;1999.90;999.90;;;11.70;99.90;;;;;;5012807;28;20934;-69
2022/09/28 09:16:35;;;;;;;1999.90;999.90;;;11.70;99.90;;;;;;5012712;28;20438;-67
2022/09/28 09:19:29;;;;;;;1999.90;999.90;;;11.80;99.90;;;;;;5012363;28;20443;-68
2022/09/28 09:22:01;;;;;;;1999.90;999.90;;;11.80;99.90;;;;;;5013266;28;20958;-68
2022/09/28 09:24:40;;;;;;;1999.90;999.90;;;11.80;99.90;;;;;;5012599;28;20800;-68
2022/09/28 09:27:37;;;;;;;1999.90;999.90;;;12.00;99.90;;;;;;5012412;28;20400;-68
2022/09/28 09:30:17;;;;;;;1999.90;999.90;;;12.10;99.90;;;;;;5012512;28;20961;-68
2022/09/28 09:33:04;;;;;;;1999.90;999.90;;;12.20;99.90;;;;;;4992821;28;20417;-68
2022/09/28 09:35:42;;;;;;;1999.90;999.90;;;12.30;99.90;;;;;;4992904;28;20441;-68
2022/09/28 09:38:26;;;;;;;1999.90;999.90;;;12.30;99.90;;;;;;4992215;28;20416;-70
2022/09/28 09:41:07;;;;;;;1999.90;999.90;;;12.30;99.90;;;;;;4993090;28;20416;-68
2022/09/28 09:43:57;;;;;;;1999.90;999.90;;;12.30;99.90;;;;;;4992687;28;20455;-67
2022/09/28 09:46:52;;;;;;;1999.90;999.90;;;12.40;99.90;;;;;;4992045;28;20421;-67
2022/09/28 09:49:39;;;;;;;1999.90;999.90;;;12.40;99.90;;;;;;4993007;28;20487;-68
2022/09/28 09:52:22;;;;;;;1999.90;999.90;;;12.50;99.90;;;;;;4992808;28;20420;-67
2022/09/28 09:55:00;;;;;;;1999.90;999.90;;;12.50;99.90;;;;;;4992415;28;20401;-67
2022/09/28 09:57:33;;;;;;;1999.90;999.90;;;12.60;99.90;;;;;;4991970;28;20396;-68
2022/09/28 10:00:00;;;;;;;1999.90;999.90;;;12.60;99.90;;;;;;4992744;28;20416;-68
2022/09/28 10:02:33;;;;;;;1999.90;999.90;;;12.60;99.90;;;;;;4992250;28;20811;-69
2022/09/28 10:05:05;;;;;;;1999.90;999.90;;;12.50;99.90;;;;;;4992734;28;20433;-70
2022/09/28 10:07:49;;;;;;;1999.90;999.90;;;12.60;99.90;;;;;;4991729;28;20412;-70
2022/09/28 10:10:39;;;;;;;1999.90;999.90;;;12.50;99.90;;;;;;4992578;28;20464;-70
2022/09/28 10:13:05;;;;;;;1999.90;999.90;;;12.50;99.90;;;;;;4991861;28;20445;-70
2022/09/28 10:15:34;;;;;;;1999.90;999.90;;;12.50;99.90;;;;;;4992021;28;20412;-66
2022/09/28 10:18:08;;;;;;;1999.90;999.90;;;12.50;99.90;;;;;;4991712;28;20178;-66
2022/09/28 10:20:38;;;;;;;1999.90;999.90;;;12.70;99.90;;;;;;4992202;28;20516;-66
2022/09/28 10:23:11;;;;;;;1999.90;999.90;;;13.00;99.90;;;;;;4991848;28;20476;-67
2022/09/28 10:25:37;;;;;;;1999.90;999.90;;;13.30;99.90;;;;;;4992316;28;20464;-67
2022/09/28 10:28:06;;;;;;;1999.90;999.90;;;13.60;99.90;;;;;;4991485;28;20501;-66
2022/09/28 10:30:41;;;;;;;1999.90;999.90;;;14.00;99.90;;;;;;4990834;28;20337;-66
2022/09/28 10:33:27;;;;;;;1999.90;999.90;;;14.30;99.90;;;;;;4992205;28;20429;-66
2022/09/28 10:35:53;;;;;;;1999.90;999.90;;;14.50;99.90;;;;;;4991945;28;20447;-66
2022/09/28 10:38:21;;;;;;;1999.90;999.90;;;14.60;99.90;;;;;;4993057;28;20819;-69
2022/09/28 10:40:53;;;;;;;1999.90;999.90;;;14.80;99.90;;;;;;4995147;28;20413;-68
2022/09/28 10:43:24;;;;;;;1999.90;999.90;;;14.80;99.90;;;;;;4995690;28;20472;-69
2022/09/28 10:46:21;;;;;;;1999.90;999.90;;;14.80;99.90;;;;;;4993328;28;20561;-68
2022/09/28 10:48:54;;;;;;;1999.90;999.90;;;14.70;99.90;;;;;;4972356;28;20484;-69
2022/09/28 10:51:38;;;;;;;1999.90;999.90;;;14.50;99.90;;;;;;4992740;28;20476;-69
2022/09/28 10:54:03;;;;;;;1999.90;999.90;;;14.30;99.90;;;;;;4992111;28;20943;-67
2022/09/28 10:56:35;;;;;;;1999.90;999.90;;;14.20;99.90;;;;;;4992473;28;20417;-70
2022/09/28 10:59:21;;;;;;;1999.90;999.90;;;14.10;99.90;;;;;;4993406;28;20174;-69
2022/09/28 11:01:46;;;;;;;1999.90;999.90;;;14.20;99.90;;;;;;4992007;28;20969;-69
2022/09/28 11:04:19;;;;;;;1999.90;999.90;;;14.30;99.90;;;;;;4992672;28;20444;-69
2022/09/28 11:06:45;;;;;;;1999.90;999.90;;;14.30;99.90;;;;;;4992793;28;20649;-69
2022/09/28 11:09:33;;;;;;;1999.90;999.90;;;14.30;99.90;;;;;;4991941;28;20483;-69
2022/09/28 11:12:02;;;;;;;1999.90;999.90;;;14.20;99.90;;;;;;4992677;28;20410;-69
2022/09/28 11:14:36;;;;;;;1999.90;999.90;;;14.20;99.90;;;;;;4992654;28;20412;-69
2022/09/28 11:17:24;;;;;;;1999.90;999.90;;;14.20;99.90;;;;;;4992898;28;20439;-69
2022/09/28 11:19:51;;;;;;;1999.90;999.90;;;14.20;99.90;;;;;;4994595;28;20408;-69
2022/09/28 11:22:21;;;;;;;1999.90;999.90;;;14.20;99.90;;;;;;4993469;28;20942;-69
2022/09/28 11:24:48;;;;;;;1999.90;999.90;;;14.10;99.90;;;;;;4992728;28;20500;-69
2022/09/28 11:27:24;;;;;;;1999.90;999.90;;;14.10;99.90;;;;;;4992643;28;20413;-69
2022/09/28 11:29:59;;;;;;;1999.90;999.90;;;14.00;99.90;;;;;;4991965;28;20899;-69
2022/09/28 11:32:30;;;;;;;1999.90;999.90;;;14.10;99.90;;;;;;4992423;28;20442;-69
2022/09/28 11:34:58;;;;;;;1999.90;999.90;;;14.10;99.90;;;;;;4993105;28;20456;-69
2022/09/28 11:37:26;;;;;;;1999.90;999.90;;;14.10;99.90;;;;;;4992282;28;20444;-69
2022/09/28 11:40:26;;;;;;;1999.90;999.90;;;14.10;99.90;;;;;;4993785;28;20417;-69
2022/09/28 11:43:34;;;;;;;1999.90;999.90;;;14.00;99.90;;;;;;5039939;23;20493;-68
2022/09/28 11:46:14;;;;;;;1999.90;999.90;;;13.90;99.90;;;;;;5014340;28;20435;-68
2022/09/28 11:48:48;;;;;;;1999.90;999.90;;;13.90;99.90;;;;;;5014661;28;20904;-68
2022/09/28 11:51:23;;;;;;;1999.90;999.90;;;14.00;99.90;;;;;;5014889;28;20409;-68
2022/09/28 11:54:20;;;;;;;1999.90;999.90;;;14.10;99.90;;;;;;5014288;28;20426;-69
2022/09/28 11:56:48;;;;;;;1999.90;999.90;;;14.20;99.90;;;;;;5014079;28;20432;-68
2022/09/28 11:59:23;;;;;;;1999.90;999.90;;;14.30;99.90;;;;;;5014032;28;20405;-68
2022/09/28 12:01:52;;;;;;;1999.90;999.90;;;14.40;99.90;;;;;;5014694;28;20406;-68
2022/09/28 12:04:32;;;;;;;1999.90;999.90;;;14.40;99.90;;;;;;5014233;28;20484;-69
2022/09/28 12:07:09;;;;;;;1999.90;999.90;;;14.40;99.90;;;;;;5013589;28;20828;-69
2022/09/28 12:09:48;;;;;;;1999.90;999.90;;;14.30;99.90;;;;;;5014222;28;20454;-68
2022/09/28 12:12:34;;;;;;;1999.90;999.90;;;14.20;99.90;;;;;;5014451;28;20458;-69
2022/09/28 12:15:17;;;;;;;1999.90;999.90;;;14.20;99.90;;;;;;5014006;28;20817;-69
2022/09/28 12:17:54;;;;;;;1999.90;999.90;;;14.30;99.90;;;;;;5013494;28;20443;-68
2022/09/28 12:20:27;;;;;;;1999.90;999.90;;;14.40;99.90;;;;;;5014278;28;20430;-68
2022/09/28 12:22:58;;;;;;;1999.90;999.90;;;14.40;99.90;;;;;;5013591;28;20886;-68
2022/09/28 12:25:26;;;;;;;1999.90;999.90;;;14.40;99.90;;;;;;5014045;28;20902;-68
2022/09/28 12:28:00;;;;;;;1999.90;999.90;;;14.50;99.90;;;;;;5013759;28;20409;-68
2022/09/28 12:30:33;;;;;;;1999.90;999.90;;;14.50;99.90;;;;;;5013588;28;20451;-69
2022/09/28 12:33:10;;;;;;;1999.90;999.90;;;14.50;99.90;;;;;;5013996;28;20422;-66